sensor_id;sensor_type;location;lat;lon;timestamp;P1;durP1;ratioP1;P2;durP2;ratioP2
7929;SDS011;4010;42.698;23.124;2023-06-22T00:01:15;12.47;;;11.17;;
7929;SDS011;4010;42.698;23.124;2023-06-22T00:03:42;14.43;;;9.80;;
7929;SDS011;4010;42.698;23.124;2023-06-22T00:06:09;11.30;;;10.30;;
7929;SDS011;4010;42.698;23.124;2023-06-22T00:08:35;12.93;;;9.80;;
7929;SDS011;4010;42.698;23.124;2023-06-22T00:11:02;11.77;;;9.57;;
7929;SDS011;4010;42.698;23.124;2023-06-22T00:13:30;11.00;;;10.10;;
7929;SDS011;4010;42.698;23.124;2023-06-22T00:15:57;11.93;;;9.80;;
7929;SDS011;4010;42.698;23.124;2023-06-22T00:18:23;10.90;;;9.90;;
7929;SDS011;4010;42.698;23.124;2023-06-22T00:20:53;10.73;;;9.73;;
7929;SDS011;4010;42.698;23.124;2023-06-22T00:23:22;11.90;;;10.73;;
7929;SDS011;4010;42.698;23.124;2023-06-22T00:25:50;12.00;;;10.80;;
7929;SDS011;4010;42.698;23.124;2023-06-22T00:28:17;10.97;;;9.97;;
7929;SDS011;4010;42.698;23.124;2023-06-22T00:30:45;11.17;;;10.13;;
7929;SDS011;4010;42.698;23.124;2023-06-22T00:33:12;10.53;;;9.53;;
7929;SDS011;4010;42.698;23.124;2023-06-22T00:35:41;11.43;;;10.43;;
7929;SDS011;4010;42.698;23.124;2023-06-22T00:38:07;10.53;;;9.63;;
7929;SDS011;4010;42.698;23.124;2023-06-22T00:40:34;9.70;;;8.90;;
7929;SDS011;4010;42.698;23.124;2023-06-22T00:43:01;10.67;;;9.70;;
7929;SDS011;4010;42.698;23.124;2023-06-22T00:45:28;10.40;;;9.40;;
7929;SDS011;4010;42.698;23.124;2023-06-22T00:47:56;11.23;;;9.27;;
7929;SDS011;4010;42.698;23.124;2023-06-22T00:50:25;11.00;;;10.00;;
7929;SDS011;4010;42.698;23.124;2023-06-22T00:52:59;10.70;;;9.77;;
7929;SDS011;4010;42.698;23.124;2023-06-22T00:55:27;11.07;;;10.07;;
7929;SDS011;4010;42.698;23.124;2023-06-22T00:57:54;9.87;;;8.87;;
7929;SDS011;4010;42.698;23.124;2023-06-22T01:00:22;10.20;;;9.30;;
7929;SDS011;4010;42.698;23.124;2023-06-22T01:02:50;11.27;;;10.27;;
7929;SDS011;4010;42.698;23.124;2023-06-22T01:05:20;10.30;;;9.40;;
7929;SDS011;4010;42.698;23.124;2023-06-22T01:08:00;12.83;;;9.70;;
7929;SDS011;4010;42.698;23.124;2023-06-22T01:10:36;15.87;;;9.10;;
7929;SDS011;4010;42.698;23.124;2023-06-22T01:13:09;11.37;;;10.33;;
7929;SDS011;4010;42.698;23.124;2023-06-22T01:15:43;12.27;;;9.40;;
7929;SDS011;4010;42.698;23.124;2023-06-22T01:18:15;10.40;;;9.60;;
7929;SDS011;4010;42.698;23.124;2023-06-22T01:20:46;10.80;;;9.70;;
7929;SDS011;4010;42.698;23.124;2023-06-22T01:23:17;11.20;;;10.10;;
7929;SDS011;4010;42.698;23.124;2023-06-22T01:25:54;10.77;;;9.77;;
7929;SDS011;4010;42.698;23.124;2023-06-22T01:28:43;11.70;;;10.50;;
7929;SDS011;4010;42.698;23.124;2023-06-22T01:31:13;10.60;;;9.27;;
7929;SDS011;4010;42.698;23.124;2023-06-22T01:33:43;10.73;;;9.17;;
7929;SDS011;4010;42.698;23.124;2023-06-22T01:36:11;11.00;;;10.10;;
7929;SDS011;4010;42.698;23.124;2023-06-22T01:38:40;11.63;;;10.50;;
7929;SDS011;4010;42.698;23.124;2023-06-22T01:41:09;11.50;;;10.30;;
7929;SDS011;4010;42.698;23.124;2023-06-22T01:43:36;15.23;;;10.70;;
7929;SDS011;4010;42.698;23.124;2023-06-22T01:46:06;11.37;;;10.27;;
7929;SDS011;4010;42.698;23.124;2023-06-22T01:48:33;11.37;;;10.30;;
7929;SDS011;4010;42.698;23.124;2023-06-22T01:51:00;10.67;;;9.63;;
7929;SDS011;4010;42.698;23.124;2023-06-22T01:53:27;11.70;;;10.63;;
7929;SDS011;4010;42.698;23.124;2023-06-22T01:55:54;14.17;;;10.60;;
7929;SDS011;4010;42.698;23.124;2023-06-22T01:58:22;11.23;;;10.17;;
7929;SDS011;4010;42.698;23.124;2023-06-22T02:00:53;10.77;;;9.63;;
7929;SDS011;4010;42.698;23.124;2023-06-22T02:03:26;12.03;;;10.83;;
7929;SDS011;4010;42.698;23.124;2023-06-22T02:05:59;14.33;;;9.90;;
7929;SDS011;4010;42.698;23.124;2023-06-22T02:08:31;12.33;;;11.23;;
7929;SDS011;4010;42.698;23.124;2023-06-22T02:11:01;11.30;;;10.27;;
7929;SDS011;4010;42.698;23.124;2023-06-22T02:13:29;11.77;;;10.63;;
7929;SDS011;4010;42.698;23.124;2023-06-22T02:15:57;12.00;;;10.80;;
7929;SDS011;4010;42.698;23.124;2023-06-22T02:18:24;11.60;;;10.50;;
7929;SDS011;4010;42.698;23.124;2023-06-22T02:20:52;12.10;;;11.00;;
7929;SDS011;4010;42.698;23.124;2023-06-22T02:23:18;15.47;;;10.63;;
7929;SDS011;4010;42.698;23.124;2023-06-22T02:25:45;12.90;;;10.53;;
7929;SDS011;4010;42.698;23.124;2023-06-22T02:28:12;12.40;;;10.33;;
7929;SDS011;4010;42.698;23.124;2023-06-22T02:30:39;12.17;;;10.80;;
7929;SDS011;4010;42.698;23.124;2023-06-22T02:33:05;11.43;;;10.43;;
7929;SDS011;4010;42.698;23.124;2023-06-22T02:35:33;12.43;;;11.23;;
7929;SDS011;4010;42.698;23.124;2023-06-22T02:38:01;12.27;;;10.20;;
7929;SDS011;4010;42.698;23.124;2023-06-22T02:40:29;11.70;;;10.33;;
7929;SDS011;4010;42.698;23.124;2023-06-22T02:42:56;11.60;;;10.53;;
7929;SDS011;4010;42.698;23.124;2023-06-22T02:45:26;11.77;;;10.73;;
7929;SDS011;4010;42.698;23.124;2023-06-22T02:47:53;13.10;;;10.87;;
7929;SDS011;4010;42.698;23.124;2023-06-22T02:50:20;11.93;;;10.80;;
7929;SDS011;4010;42.698;23.124;2023-06-22T02:52:48;12.07;;;11.03;;
7929;SDS011;4010;42.698;23.124;2023-06-22T02:55:15;12.47;;;11.20;;
7929;SDS011;4010;42.698;23.124;2023-06-22T02:57:41;13.80;;;12.10;;
7929;SDS011;4010;42.698;23.124;2023-06-22T03:00:09;13.27;;;11.83;;
7929;SDS011;4010;42.698;23.124;2023-06-22T03:02:42;14.57;;;12.17;;
7929;SDS011;4010;42.698;23.124;2023-06-22T03:05:09;13.67;;;12.37;;
7929;SDS011;4010;42.698;23.124;2023-06-22T03:07:38;14.23;;;12.87;;
7929;SDS011;4010;42.698;23.124;2023-06-22T03:10:07;14.43;;;11.40;;
7929;SDS011;4010;42.698;23.124;2023-06-22T03:12:35;11.90;;;10.77;;
7929;SDS011;4010;42.698;23.124;2023-06-22T03:15:02;12.50;;;11.40;;
7929;SDS011;4010;42.698;23.124;2023-06-22T03:17:29;12.03;;;10.93;;
7929;SDS011;4010;42.698;23.124;2023-06-22T03:19:56;11.30;;;10.20;;
7929;SDS011;4010;42.698;23.124;2023-06-22T03:22:23;10.53;;;9.53;;
7929;SDS011;4010;42.698;23.124;2023-06-22T03:24:49;9.50;;;8.60;;
7929;SDS011;4010;42.698;23.124;2023-06-22T03:27:17;9.43;;;8.53;;
7929;SDS011;4010;42.698;23.124;2023-06-22T03:29:44;9.07;;;7.63;;
7929;SDS011;4010;42.698;23.124;2023-06-22T03:32:11;7.97;;;7.27;;
7929;SDS011;4010;42.698;23.124;2023-06-22T03:34:37;7.90;;;7.10;;
7929;SDS011;4010;42.698;23.124;2023-06-22T03:37:04;7.87;;;7.07;;
7929;SDS011;4010;42.698;23.124;2023-06-22T03:39:31;7.37;;;6.63;;
7929;SDS011;4010;42.698;23.124;2023-06-22T03:41:58;9.67;;;7.73;;
7929;SDS011;4010;42.698;23.124;2023-06-22T03:44:26;8.83;;;7.60;;
7929;SDS011;4010;42.698;23.124;2023-06-22T03:46:53;10.73;;;7.40;;
7929;SDS011;4010;42.698;23.124;2023-06-22T03:49:19;8.57;;;7.50;;
7929;SDS011;4010;42.698;23.124;2023-06-22T03:51:46;8.13;;;7.00;;
7929;SDS011;4010;42.698;23.124;2023-06-22T03:54:13;8.90;;;7.23;;
7929;SDS011;4010;42.698;23.124;2023-06-22T03:56:39;8.77;;;7.80;;
7929;SDS011;4010;42.698;23.124;2023-06-22T03:59:06;11.53;;;7.97;;
7929;SDS011;4010;42.698;23.124;2023-06-22T04:01:34;7.53;;;6.80;;
7929;SDS011;4010;42.698;23.124;2023-06-22T04:04:01;7.63;;;6.57;;
7929;SDS011;4010;42.698;23.124;2023-06-22T04:06:28;10.30;;;7.20;;
7929;SDS011;4010;42.698;23.124;2023-06-22T04:08:55;7.47;;;6.87;;
7929;SDS011;4010;42.698;23.124;2023-06-22T04:11:21;8.23;;;7.50;;
7929;SDS011;4010;42.698;23.124;2023-06-22T04:13:48;8.23;;;6.60;;
7929;SDS011;4010;42.698;23.124;2023-06-22T04:16:16;8.10;;;6.00;;
7929;SDS011;4010;42.698;23.124;2023-06-22T04:18:44;7.20;;;6.50;;
7929;SDS011;4010;42.698;23.124;2023-06-22T04:21:11;7.20;;;6.50;;
7929;SDS011;4010;42.698;23.124;2023-06-22T04:23:37;6.67;;;6.07;;
7929;SDS011;4010;42.698;23.124;2023-06-22T04:26:04;6.87;;;6.27;;
7929;SDS011;4010;42.698;23.124;2023-06-22T04:28:31;7.00;;;6.40;;
7929;SDS011;4010;42.698;23.124;2023-06-22T04:31:00;6.57;;;5.93;;
7929;SDS011;4010;42.698;23.124;2023-06-22T04:33:27;6.93;;;5.93;;
7929;SDS011;4010;42.698;23.124;2023-06-22T04:35:56;6.93;;;6.37;;
7929;SDS011;4010;42.698;23.124;2023-06-22T04:38:26;6.63;;;6.03;;
7929;SDS011;4010;42.698;23.124;2023-06-22T04:40:53;6.53;;;5.93;;
7929;SDS011;4010;42.698;23.124;2023-06-22T04:43:20;7.67;;;6.97;;
7929;SDS011;4010;42.698;23.124;2023-06-22T04:45:47;7.63;;;6.80;;
7929;SDS011;4010;42.698;23.124;2023-06-22T04:48:17;9.50;;;8.47;;
7929;SDS011;4010;42.698;23.124;2023-06-22T04:50:44;7.83;;;7.13;;
7929;SDS011;4010;42.698;23.124;2023-06-22T04:53:12;15.40;;;7.00;;
7929;SDS011;4010;42.698;23.124;2023-06-22T04:55:39;11.17;;;9.10;;
7929;SDS011;4010;42.698;23.124;2023-06-22T04:58:06;9.30;;;7.77;;
7929;SDS011;4010;42.698;23.124;2023-06-22T05:00:34;15.37;;;9.07;;
7929;SDS011;4010;42.698;23.124;2023-06-22T05:03:01;11.50;;;9.47;;
7929;SDS011;4010;42.698;23.124;2023-06-22T05:05:28;9.87;;;8.87;;
7929;SDS011;4010;42.698;23.124;2023-06-22T05:07:56;10.73;;;9.55;;
7929;SDS011;4010;42.698;23.124;2023-06-22T05:10:26;10.23;;;9.23;;
7929;SDS011;4010;42.698;23.124;2023-06-22T05:12:53;9.50;;;8.60;;
7929;SDS011;4010;42.698;23.124;2023-06-22T05:15:20;10.67;;;9.50;;
7929;SDS011;4010;42.698;23.124;2023-06-22T05:17:48;11.63;;;10.03;;
7929;SDS011;4010;42.698;23.124;2023-06-22T05:20:14;13.02;;;9.90;;
7929;SDS011;4010;42.698;23.124;2023-06-22T05:22:43;13.20;;;10.23;;
7929;SDS011;4010;42.698;23.124;2023-06-22T05:25:10;14.03;;;10.43;;
7929;SDS011;4010;42.698;23.124;2023-06-22T05:27:38;11.07;;;9.87;;
7929;SDS011;4010;42.698;23.124;2023-06-22T05:30:06;24.40;;;11.63;;
7929;SDS011;4010;42.698;23.124;2023-06-22T05:32:33;11.77;;;10.67;;
7929;SDS011;4010;42.698;23.124;2023-06-22T05:35:00;15.10;;;10.67;;
7929;SDS011;4010;42.698;23.124;2023-06-22T05:37:28;12.80;;;10.23;;
7929;SDS011;4010;42.698;23.124;2023-06-22T05:39:55;10.87;;;9.87;;
7929;SDS011;4010;42.698;23.124;2023-06-22T05:42:22;13.90;;;10.10;;
7929;SDS011;4010;42.698;23.124;2023-06-22T05:44:51;11.13;;;9.83;;
7929;SDS011;4010;42.698;23.124;2023-06-22T05:47:19;11.73;;;10.73;;
7929;SDS011;4010;42.698;23.124;2023-06-22T05:49:45;11.60;;;10.40;;
7929;SDS011;4010;42.698;23.124;2023-06-22T05:52:12;11.33;;;10.33;;
7929;SDS011;4010;42.698;23.124;2023-06-22T05:54:39;10.37;;;9.37;;
7929;SDS011;4010;42.698;23.124;2023-06-22T05:57:06;11.93;;;11.03;;
7929;SDS011;4010;42.698;23.124;2023-06-22T05:59:33;10.60;;;9.60;;
7929;SDS011;4010;42.698;23.124;2023-06-22T06:02:01;14.57;;;9.37;;
7929;SDS011;4010;42.698;23.124;2023-06-22T06:04:28;11.10;;;10.00;;
7929;SDS011;4010;42.698;23.124;2023-06-22T06:06:55;11.67;;;9.90;;
7929;SDS011;4010;42.698;23.124;2023-06-22T06:09:22;10.90;;;9.77;;
7929;SDS011;4010;42.698;23.124;2023-06-22T06:11:49;10.47;;;9.57;;
7929;SDS011;4010;42.698;23.124;2023-06-22T06:14:15;10.90;;;10.03;;
7929;SDS011;4010;42.698;23.124;2023-06-22T06:16:42;10.90;;;9.90;;
7929;SDS011;4010;42.698;23.124;2023-06-22T06:19:10;12.17;;;10.83;;
7929;SDS011;4010;42.698;23.124;2023-06-22T06:21:37;10.20;;;9.35;;
7929;SDS011;4010;42.698;23.124;2023-06-22T06:24:04;10.90;;;10.00;;
7929;SDS011;4010;42.698;23.124;2023-06-22T06:26:31;11.83;;;9.80;;
7929;SDS011;4010;42.698;23.124;2023-06-22T06:29:00;10.70;;;9.80;;
7929;SDS011;4010;42.698;23.124;2023-06-22T06:31:28;10.53;;;9.57;;
7929;SDS011;4010;42.698;23.124;2023-06-22T06:33:55;11.13;;;10.30;;
7929;SDS011;4010;42.698;23.124;2023-06-22T06:36:23;11.37;;;10.47;;
7929;SDS011;4010;42.698;23.124;2023-06-22T06:38:50;11.70;;;10.57;;
7929;SDS011;4010;42.698;23.124;2023-06-22T06:41:17;12.50;;;11.50;;
7929;SDS011;4010;42.698;23.124;2023-06-22T06:43:43;10.73;;;9.80;;
7929;SDS011;4010;42.698;23.124;2023-06-22T06:46:10;12.47;;;11.33;;
7929;SDS011;4010;42.698;23.124;2023-06-22T06:48:37;12.70;;;11.70;;
7929;SDS011;4010;42.698;23.124;2023-06-22T06:51:04;12.07;;;10.83;;
7929;SDS011;4010;42.698;23.124;2023-06-22T06:53:35;11.30;;;10.40;;
7929;SDS011;4010;42.698;23.124;2023-06-22T06:56:02;12.03;;;10.83;;
7929;SDS011;4010;42.698;23.124;2023-06-22T06:58:30;12.27;;;11.20;;
7929;SDS011;4010;42.698;23.124;2023-06-22T07:00:57;12.47;;;11.23;;
7929;SDS011;4010;42.698;23.124;2023-06-22T07:03:23;12.43;;;11.00;;
7929;SDS011;4010;42.698;23.124;2023-06-22T07:05:50;12.50;;;11.30;;
7929;SDS011;4010;42.698;23.124;2023-06-22T07:08:17;12.83;;;11.57;;
7929;SDS011;4010;42.698;23.124;2023-06-22T07:10:45;11.93;;;10.97;;
7929;SDS011;4010;42.698;23.124;2023-06-22T07:13:12;12.10;;;11.13;;
7929;SDS011;4010;42.698;23.124;2023-06-22T07:15:39;13.70;;;12.50;;
7929;SDS011;4010;42.698;23.124;2023-06-22T07:18:06;12.93;;;11.83;;
7929;SDS011;4010;42.698;23.124;2023-06-22T07:20:32;13.07;;;11.57;;
7929;SDS011;4010;42.698;23.124;2023-06-22T07:22:59;12.53;;;11.43;;
7929;SDS011;4010;42.698;23.124;2023-06-22T07:25:26;12.07;;;11.17;;
7929;SDS011;4010;42.698;23.124;2023-06-22T07:28:01;12.43;;;11.43;;
7929;SDS011;4010;42.698;23.124;2023-06-22T07:30:29;13.20;;;12.10;;
7929;SDS011;4010;42.698;23.124;2023-06-22T07:32:57;13.60;;;12.50;;
7929;SDS011;4010;42.698;23.124;2023-06-22T07:35:28;13.40;;;12.20;;
7929;SDS011;4010;42.698;23.124;2023-06-22T07:37:55;12.97;;;11.80;;
7929;SDS011;4010;42.698;23.124;2023-06-22T07:40:21;12.97;;;11.73;;
7929;SDS011;4010;42.698;23.124;2023-06-22T07:42:48;13.33;;;12.23;;
7929;SDS011;4010;42.698;23.124;2023-06-22T07:45:18;12.53;;;11.63;;
7929;SDS011;4010;42.698;23.124;2023-06-22T07:47:44;13.07;;;12.00;;
7929;SDS011;4010;42.698;23.124;2023-06-22T07:50:11;13.83;;;11.83;;
7929;SDS011;4010;42.698;23.124;2023-06-22T07:52:38;13.50;;;12.00;;
7929;SDS011;4010;42.698;23.124;2023-06-22T07:55:04;13.00;;;11.87;;
7929;SDS011;4010;42.698;23.124;2023-06-22T07:57:31;12.83;;;11.67;;
7929;SDS011;4010;42.698;23.124;2023-06-22T07:59:58;12.80;;;11.80;;
7929;SDS011;4010;42.698;23.124;2023-06-22T08:02:27;12.10;;;11.10;;
7929;SDS011;4010;42.698;23.124;2023-06-22T08:04:53;12.03;;;11.03;;
7929;SDS011;4010;42.698;23.124;2023-06-22T08:07:20;13.80;;;12.80;;
7929;SDS011;4010;42.698;23.124;2023-06-22T08:09:48;13.57;;;12.37;;
7929;SDS011;4010;42.698;23.124;2023-06-22T08:12:15;12.63;;;11.53;;
7929;SDS011;4010;42.698;23.124;2023-06-22T08:14:42;12.63;;;11.73;;
7929;SDS011;4010;42.698;23.124;2023-06-22T08:17:11;11.40;;;10.50;;
7929;SDS011;4010;42.698;23.124;2023-06-22T08:19:39;12.40;;;11.07;;
7929;SDS011;4010;42.698;23.124;2023-06-22T08:22:06;11.80;;;10.67;;
7929;SDS011;4010;42.698;23.124;2023-06-22T08:24:33;12.13;;;11.13;;
7929;SDS011;4010;42.698;23.124;2023-06-22T08:26:59;50.27;;;11.47;;
7929;SDS011;4010;42.698;23.124;2023-06-22T08:29:26;11.83;;;10.83;;
7929;SDS011;4010;42.698;23.124;2023-06-22T08:31:53;11.07;;;10.07;;
7929;SDS011;4010;42.698;23.124;2023-06-22T08:34:19;12.77;;;11.00;;
7929;SDS011;4010;42.698;23.124;2023-06-22T08:36:47;11.23;;;10.37;;
7929;SDS011;4010;42.698;23.124;2023-06-22T08:39:16;12.17;;;11.07;;
7929;SDS011;4010;42.698;23.124;2023-06-22T08:41:43;11.50;;;10.67;;
7929;SDS011;4010;42.698;23.124;2023-06-22T08:44:10;12.03;;;11.13;;
7929;SDS011;4010;42.698;23.124;2023-06-22T08:46:36;11.90;;;10.90;;
7929;SDS011;4010;42.698;23.124;2023-06-22T08:49:05;11.70;;;10.80;;
7929;SDS011;4010;42.698;23.124;2023-06-22T08:51:32;12.10;;;10.90;;
7929;SDS011;4010;42.698;23.124;2023-06-22T08:54:00;11.13;;;9.97;;
7929;SDS011;4010;42.698;23.124;2023-06-22T08:56:26;11.00;;;10.20;;
7929;SDS011;4010;42.698;23.124;2023-06-22T08:58:53;11.30;;;10.40;;
7929;SDS011;4010;42.698;23.124;2023-06-22T09:01:20;13.20;;;11.90;;
7929;SDS011;4010;42.698;23.124;2023-06-22T09:03:47;12.17;;;11.27;;
7929;SDS011;4010;42.698;23.124;2023-06-22T09:06:20;12.57;;;11.40;;
7929;SDS011;4010;42.698;23.124;2023-06-22T09:08:46;12.63;;;11.53;;
7929;SDS011;4010;42.698;23.124;2023-06-22T09:11:15;12.63;;;10.80;;
7929;SDS011;4010;42.698;23.124;2023-06-22T09:13:42;40.90;;;11.80;;
7929;SDS011;4010;42.698;23.124;2023-06-22T09:16:09;10.97;;;10.10;;
7929;SDS011;4010;42.698;23.124;2023-06-22T09:18:36;10.70;;;9.70;;
7929;SDS011;4010;42.698;23.124;2023-06-22T09:21:03;11.80;;;10.90;;
7929;SDS011;4010;42.698;23.124;2023-06-22T09:23:30;10.57;;;9.77;;
7929;SDS011;4010;42.698;23.124;2023-06-22T09:25:56;11.13;;;10.23;;
7929;SDS011;4010;42.698;23.124;2023-06-22T09:28:24;10.90;;;9.93;;
7929;SDS011;4010;42.698;23.124;2023-06-22T09:30:51;10.27;;;9.47;;
7929;SDS011;4010;42.698;23.124;2023-06-22T09:33:24;10.50;;;9.70;;
7929;SDS011;4010;42.698;23.124;2023-06-22T09:35:51;10.67;;;9.40;;
7929;SDS011;4010;42.698;23.124;2023-06-22T09:38:17;10.67;;;9.87;;
7929;SDS011;4010;42.698;23.124;2023-06-22T09:40:44;10.37;;;9.57;;
7929;SDS011;4010;42.698;23.124;2023-06-22T09:43:11;10.50;;;9.73;;
7929;SDS011;4010;42.698;23.124;2023-06-22T09:45:39;10.10;;;9.30;;
7929;SDS011;4010;42.698;23.124;2023-06-22T09:48:06;9.27;;;8.57;;
7929;SDS011;4010;42.698;23.124;2023-06-22T09:50:32;11.00;;;10.10;;
7929;SDS011;4010;42.698;23.124;2023-06-22T09:52:59;10.33;;;9.40;;
7929;SDS011;4010;42.698;23.124;2023-06-22T09:55:26;10.50;;;9.50;;
7929;SDS011;4010;42.698;23.124;2023-06-22T09:57:52;11.13;;;10.10;;
7929;SDS011;4010;42.698;23.124;2023-06-22T10:00:20;9.77;;;8.97;;
7929;SDS011;4010;42.698;23.124;2023-06-22T10:02:48;10.00;;;9.17;;
7929;SDS011;4010;42.698;23.124;2023-06-22T10:05:15;10.67;;;9.73;;
7929;SDS011;4010;42.698;23.124;2023-06-22T10:07:42;10.70;;;9.70;;
7929;SDS011;4010;42.698;23.124;2023-06-22T10:10:09;10.43;;;9.63;;
7929;SDS011;4010;42.698;23.124;2023-06-22T10:12:36;10.37;;;9.57;;
7929;SDS011;4010;42.698;23.124;2023-06-22T10:15:04;10.07;;;9.27;;
7929;SDS011;4010;42.698;23.124;2023-06-22T10:17:31;10.00;;;9.10;;
7929;SDS011;4010;42.698;23.124;2023-06-22T10:19:59;10.40;;;9.60;;
7929;SDS011;4010;42.698;23.124;2023-06-22T10:22:31;9.00;;;8.30;;
7929;SDS011;4010;42.698;23.124;2023-06-22T10:24:57;10.23;;;9.40;;
7929;SDS011;4010;42.698;23.124;2023-06-22T10:27:24;10.00;;;9.03;;
7929;SDS011;4010;42.698;23.124;2023-06-22T10:29:51;10.20;;;9.40;;
7929;SDS011;4010;42.698;23.124;2023-06-22T10:32:18;10.17;;;9.37;;
7929;SDS011;4010;42.698;23.124;2023-06-22T10:34:45;11.13;;;8.83;;
7929;SDS011;4010;42.698;23.124;2023-06-22T10:37:14;9.67;;;8.97;;
7929;SDS011;4010;42.698;23.124;2023-06-22T10:39:41;10.47;;;9.67;;
7929;SDS011;4010;42.698;23.124;2023-06-22T10:42:08;9.93;;;9.03;;
7929;SDS011;4010;42.698;23.124;2023-06-22T10:44:34;9.33;;;8.63;;
7929;SDS011;4010;42.698;23.124;2023-06-22T10:47:01;9.63;;;8.93;;
7929;SDS011;4010;42.698;23.124;2023-06-22T10:49:28;10.17;;;9.07;;
7929;SDS011;4010;42.698;23.124;2023-06-22T10:51:54;10.03;;;9.23;;
7929;SDS011;4010;42.698;23.124;2023-06-22T10:54:22;9.93;;;9.10;;
7929;SDS011;4010;42.698;23.124;2023-06-22T10:56:49;9.23;;;8.53;;
7929;SDS011;4010;42.698;23.124;2023-06-22T10:59:16;10.53;;;9.63;;
7929;SDS011;4010;42.698;23.124;2023-06-22T11:01:42;10.33;;;9.37;;
7929;SDS011;4010;42.698;23.124;2023-06-22T11:04:09;9.90;;;9.00;;
7929;SDS011;4010;42.698;23.124;2023-06-22T11:06:36;10.83;;;9.93;;
7929;SDS011;4010;42.698;23.124;2023-06-22T11:09:02;10.43;;;9.53;;
7929;SDS011;4010;42.698;23.124;2023-06-22T11:11:31;9.37;;;8.63;;
7929;SDS011;4010;42.698;23.124;2023-06-22T11:13:58;11.37;;;8.73;;
7929;SDS011;4010;42.698;23.124;2023-06-22T11:16:24;8.83;;;8.23;;
7929;SDS011;4010;42.698;23.124;2023-06-22T11:18:51;9.23;;;8.53;;
7929;SDS011;4010;42.698;23.124;2023-06-22T11:21:18;9.10;;;8.40;;
7929;SDS011;4010;42.698;23.124;2023-06-22T11:23:45;9.03;;;8.33;;
7929;SDS011;4010;42.698;23.124;2023-06-22T11:26:11;9.33;;;8.60;;
7929;SDS011;4010;42.698;23.124;2023-06-22T11:28:39;9.47;;;8.57;;
7929;SDS011;4010;42.698;23.124;2023-06-22T11:31:06;9.17;;;8.17;;
7929;SDS011;4010;42.698;23.124;2023-06-22T11:33:34;9.57;;;8.80;;
7929;SDS011;4010;42.698;23.124;2023-06-22T11:36:00;11.40;;;8.33;;
7929;SDS011;4010;42.698;23.124;2023-06-22T11:38:27;8.60;;;8.00;;
7929;SDS011;4010;42.698;23.124;2023-06-22T11:40:55;9.20;;;8.40;;
7929;SDS011;4010;42.698;23.124;2023-06-22T11:43:22;8.53;;;7.90;;
7929;SDS011;4010;42.698;23.124;2023-06-22T11:45:50;9.60;;;8.90;;
7929;SDS011;4010;42.698;23.124;2023-06-22T11:48:17;10.10;;;8.90;;
7929;SDS011;4010;42.698;23.124;2023-06-22T11:50:43;9.20;;;8.57;;
7929;SDS011;4010;42.698;23.124;2023-06-22T11:53:10;9.23;;;8.53;;
7929;SDS011;4010;42.698;23.124;2023-06-22T11:55:37;9.33;;;8.63;;
7929;SDS011;4010;42.698;23.124;2023-06-22T11:58:04;8.93;;;8.23;;
7929;SDS011;4010;42.698;23.124;2023-06-22T12:00:31;9.03;;;7.97;;
7929;SDS011;4010;42.698;23.124;2023-06-22T12:02:59;8.53;;;7.93;;
7929;SDS011;4010;42.698;23.124;2023-06-22T12:05:26;9.33;;;8.63;;
7929;SDS011;4010;42.698;23.124;2023-06-22T12:07:53;9.07;;;8.27;;
7929;SDS011;4010;42.698;23.124;2023-06-22T12:10:20;9.07;;;8.37;;
7929;SDS011;4010;42.698;23.124;2023-06-22T12:12:47;8.73;;;8.00;;
7929;SDS011;4010;42.698;23.124;2023-06-22T12:15:13;9.27;;;8.47;;
7929;SDS011;4010;42.698;23.124;2023-06-22T12:17:40;9.20;;;8.37;;
7929;SDS011;4010;42.698;23.124;2023-06-22T12:20:09;9.03;;;8.43;;
7929;SDS011;4010;42.698;23.124;2023-06-22T12:22:36;10.53;;;9.63;;
7929;SDS011;4010;42.698;23.124;2023-06-22T12:25:04;12.27;;;11.17;;
7929;SDS011;4010;42.698;23.124;2023-06-22T12:27:31;9.43;;;8.50;;
7929;SDS011;4010;42.698;23.124;2023-06-22T12:29:57;13.37;;;8.37;;
7929;SDS011;4010;42.698;23.124;2023-06-22T12:32:24;19.03;;;9.47;;
7929;SDS011;4010;42.698;23.124;2023-06-22T12:34:51;15.27;;;8.80;;
7929;SDS011;4010;42.698;23.124;2023-06-22T12:37:19;14.87;;;7.73;;
7929;SDS011;4010;42.698;23.124;2023-06-22T12:39:46;12.23;;;8.93;;
7929;SDS011;4010;42.698;23.124;2023-06-22T12:42:12;11.67;;;8.73;;
7929;SDS011;4010;42.698;23.124;2023-06-22T12:44:39;13.97;;;9.30;;
7929;SDS011;4010;42.698;23.124;2023-06-22T12:47:06;11.97;;;8.30;;
7929;SDS011;4010;42.698;23.124;2023-06-22T12:49:33;9.87;;;7.40;;
7929;SDS011;4010;42.698;23.124;2023-06-22T12:52:00;9.40;;;7.43;;
7929;SDS011;4010;42.698;23.124;2023-06-22T12:54:28;10.30;;;7.47;;
7929;SDS011;4010;42.698;23.124;2023-06-22T12:56:55;9.83;;;7.23;;
7929;SDS011;4010;42.698;23.124;2023-06-22T12:59:22;11.00;;;7.20;;
7929;SDS011;4010;42.698;23.124;2023-06-22T13:01:49;10.33;;;7.30;;
7929;SDS011;4010;42.698;23.124;2023-06-22T13:04:16;8.77;;;7.43;;
7929;SDS011;4010;42.698;23.124;2023-06-22T13:06:43;11.47;;;8.50;;
7929;SDS011;4010;42.698;23.124;2023-06-22T13:09:12;10.00;;;7.43;;
7929;SDS011;4010;42.698;23.124;2023-06-22T13:11:41;11.30;;;8.43;;
7929;SDS011;4010;42.698;23.124;2023-06-22T13:14:08;12.47;;;9.37;;
7929;SDS011;4010;42.698;23.124;2023-06-22T13:16:35;11.57;;;8.07;;
7929;SDS011;4010;42.698;23.124;2023-06-22T13:19:01;10.63;;;8.70;;
7929;SDS011;4010;42.698;23.124;2023-06-22T13:21:28;9.60;;;8.27;;
7929;SDS011;4010;42.698;23.124;2023-06-22T13:23:55;12.27;;;8.83;;
7929;SDS011;4010;42.698;23.124;2023-06-22T13:26:21;9.73;;;8.40;;
7929;SDS011;4010;42.698;23.124;2023-06-22T13:28:49;10.87;;;9.13;;
7929;SDS011;4010;42.698;23.124;2023-06-22T13:31:16;10.00;;;8.87;;
7929;SDS011;4010;42.698;23.124;2023-06-22T13:33:43;9.40;;;8.50;;
7929;SDS011;4010;42.698;23.124;2023-06-22T13:36:13;11.83;;;9.37;;
7929;SDS011;4010;42.698;23.124;2023-06-22T13:38:42;10.87;;;9.77;;
7929;SDS011;4010;42.698;23.124;2023-06-22T13:41:11;12.60;;;9.83;;
7929;SDS011;4010;42.698;23.124;2023-06-22T13:43:40;10.90;;;9.40;;
7929;SDS011;4010;42.698;23.124;2023-06-22T13:46:09;11.53;;;10.33;;
7929;SDS011;4010;42.698;23.124;2023-06-22T13:48:35;11.10;;;9.83;;
7929;SDS011;4010;42.698;23.124;2023-06-22T13:51:02;10.33;;;9.20;;
7929;SDS011;4010;42.698;23.124;2023-06-22T13:53:29;10.93;;;9.83;;
7929;SDS011;4010;42.698;23.124;2023-06-22T13:55:55;14.33;;;9.97;;
7929;SDS011;4010;42.698;23.124;2023-06-22T13:58:22;11.73;;;10.60;;
7929;SDS011;4010;42.698;23.124;2023-06-22T14:00:49;12.60;;;11.20;;
7929;SDS011;4010;42.698;23.124;2023-06-22T14:03:17;12.10;;;11.00;;
7929;SDS011;4010;42.698;23.124;2023-06-22T14:05:43;13.33;;;11.10;;
7929;SDS011;4010;42.698;23.124;2023-06-22T14:08:11;12.37;;;11.10;;
7929;SDS011;4010;42.698;23.124;2023-06-22T14:10:37;12.07;;;10.97;;
7929;SDS011;4010;42.698;23.124;2023-06-22T14:13:04;13.10;;;11.90;;
7929;SDS011;4010;42.698;23.124;2023-06-22T14:15:32;13.23;;;12.03;;
7929;SDS011;4010;42.698;23.124;2023-06-22T14:17:58;13.37;;;11.97;;
7929;SDS011;4010;42.698;23.124;2023-06-22T14:20:26;13.50;;;12.30;;
7929;SDS011;4010;42.698;23.124;2023-06-22T14:22:53;13.27;;;11.80;;
7929;SDS011;4010;42.698;23.124;2023-06-22T14:25:20;14.80;;;12.63;;
7929;SDS011;4010;42.698;23.124;2023-06-22T14:27:46;13.70;;;12.40;;
7929;SDS011;4010;42.698;23.124;2023-06-22T14:30:13;13.83;;;12.63;;
7929;SDS011;4010;42.698;23.124;2023-06-22T14:32:40;13.97;;;12.77;;
7929;SDS011;4010;42.698;23.124;2023-06-22T14:35:09;14.07;;;12.63;;
7929;SDS011;4010;42.698;23.124;2023-06-22T14:37:37;13.37;;;12.20;;
7929;SDS011;4010;42.698;23.124;2023-06-22T14:40:04;14.40;;;13.00;;
7929;SDS011;4010;42.698;23.124;2023-06-22T14:42:31;13.20;;;12.00;;
7929;SDS011;4010;42.698;23.124;2023-06-22T14:44:58;13.77;;;12.60;;
7929;SDS011;4010;42.698;23.124;2023-06-22T14:47:24;13.60;;;12.27;;